Airfield :
LOGIN :

Register | Disclaimer

   EN    FR    IT 

 










Legend :    VFR   Marginal VFR   IFR   Intensive IFR   Very Intensive IFR
Visi :
Ceiling :
>= 8 km
>= 3000ft
5 to 8 km
1000 to 3000 ft
1500m to 5 km
500 to 1000 ft
800 to 1500m
200 to 500 ft
< 800m
< 200 ft
Symbols :   Thunderstorms  Fog  Heavy snow  Heavy precipitations  Wind > 20 kt
SIGMETs :     Misc.  Thunderstorms  Icing  Turbulence  Mountain Waves  Volcanic Ashes






- Airport Elevation : 782 ft
- IATA code : BGY


LIME - Orio al Serio International - Bergamo

CURRENT METAR :
  • 211320Z 28006KT 9999 BKN060 16/09 Q1023 NOSIG

EXPIRED METARs :
  • 211250Z 27005KT 230V300 9999 BKN065 16/10 Q1023 NOSIG
  • 211220Z 27005KT 240V310 9999 BKN060 15/09 Q1024 NOSIG
  • 211150Z 27004KT 230V300 9999 BKN065 15/09 Q1024 NOSIG
  • 211120Z 26005KT 220V290 9000 BKN065 15/09 Q1024 NOSIG
  • 211050Z 22005KT 190V250 9000 BKN065 15/09 Q1024 NOSIG

TAF TAF LIME
Valid from the 21 at 12:00 until the 22 at 12:00 UTC


211100Z 2112/2212 VRB05KT 9999 SCT060
TEMPO 2202/2207 3000 BR



MET'MAP, your aeronautical weather chart ! - Copyright ORBIFLY December 2007 - Disclaimer

ORBIFLY MET'MAP TEAM :

Programming & Development : Alexandra Zaïnal
Concept & original design : Baudouin d'Aumeries
Assistance for programming : Marc-Olivier Méhu
Technical & hardware support : Manuel Goepfert

Contact : metmap@orbifly.com




SOURCES & CREDITS :

   NOAA